sensor_id;sensor_type;location;lat;lon;timestamp;temperature;humidity
38428;DHT22;24211;49.980;19.776;2023-03-04T00:00:30;2.30;99.90
38428;DHT22;24211;49.980;19.776;2023-03-04T00:03:18;2.30;99.90
38428;DHT22;24211;49.980;19.776;2023-03-04T00:05:45;2.40;99.90
38428;DHT22;24211;49.980;19.776;2023-03-04T00:08:13;2.30;99.90
38428;DHT22;24211;49.980;19.776;2023-03-04T00:10:40;2.30;99.90
38428;DHT22;24211;49.980;19.776;2023-03-04T00:13:07;2.30;99.90
38428;DHT22;24211;49.980;19.776;2023-03-04T00:15:34;2.30;99.90
38428;DHT22;24211;49.980;19.776;2023-03-04T00:18:02;2.30;99.90
38428;DHT22;24211;49.980;19.776;2023-03-04T00:20:29;2.30;99.90
38428;DHT22;24211;49.980;19.776;2023-03-04T00:22:56;2.30;99.90
38428;DHT22;24211;49.980;19.776;2023-03-04T00:25:23;2.40;99.90
38428;DHT22;24211;49.980;19.776;2023-03-04T00:27:50;2.40;99.90
38428;DHT22;24211;49.980;19.776;2023-03-04T00:30:17;2.40;99.90
38428;DHT22;24211;49.980;19.776;2023-03-04T00:32:44;2.40;99.90
38428;DHT22;24211;49.980;19.776;2023-03-04T00:35:12;2.40;99.90
38428;DHT22;24211;49.980;19.776;2023-03-04T00:37:39;2.50;99.90
38428;DHT22;24211;49.980;19.776;2023-03-04T00:40:07;2.40;99.90
38428;DHT22;24211;49.980;19.776;2023-03-04T00:42:35;2.30;99.90
38428;DHT22;24211;49.980;19.776;2023-03-04T00:45:04;2.30;99.90
38428;DHT22;24211;49.980;19.776;2023-03-04T00:47:31;2.30;99.90
38428;DHT22;24211;49.980;19.776;2023-03-04T00:49:58;2.30;99.90
38428;DHT22;24211;49.980;19.776;2023-03-04T00:52:26;2.30;99.90
38428;DHT22;24211;49.980;19.776;2023-03-04T00:54:53;2.30;99.90
38428;DHT22;24211;49.980;19.776;2023-03-04T00:57:20;2.30;99.90
38428;DHT22;24211;49.980;19.776;2023-03-04T00:59:47;2.30;99.90
38428;DHT22;24211;49.980;19.776;2023-03-04T01:02:14;2.30;99.90
38428;DHT22;24211;49.980;19.776;2023-03-04T01:04:41;2.40;99.90
38428;DHT22;24211;49.980;19.776;2023-03-04T01:07:09;2.40;99.90
38428;DHT22;24211;49.980;19.776;2023-03-04T01:09:36;2.40;99.90
38428;DHT22;24211;49.980;19.776;2023-03-04T01:12:03;2.30;99.90
38428;DHT22;24211;49.980;19.776;2023-03-04T01:14:31;2.40;99.90
38428;DHT22;24211;49.980;19.776;2023-03-04T01:16:58;2.40;99.90
38428;DHT22;24211;49.980;19.776;2023-03-04T01:19:26;2.40;99.90
38428;DHT22;24211;49.980;19.776;2023-03-04T01:21:54;2.40;99.90
38428;DHT22;24211;49.980;19.776;2023-03-04T01:24:21;2.40;99.90
38428;DHT22;24211;49.980;19.776;2023-03-04T01:26:48;2.40;99.90
38428;DHT22;24211;49.980;19.776;2023-03-04T01:29:15;2.40;99.90
38428;DHT22;24211;49.980;19.776;2023-03-04T01:31:42;2.40;99.90
38428;DHT22;24211;49.980;19.776;2023-03-04T01:34:09;2.40;99.90
38428;DHT22;24211;49.980;19.776;2023-03-04T01:36:46;2.30;99.90
38428;DHT22;24211;49.980;19.776;2023-03-04T01:39:13;2.30;99.90
38428;DHT22;24211;49.980;19.776;2023-03-04T01:41:41;2.40;99.90
38428;DHT22;24211;49.980;19.776;2023-03-04T01:44:10;2.40;99.90
38428;DHT22;24211;49.980;19.776;2023-03-04T01:46:40;2.40;99.90
38428;DHT22;24211;49.980;19.776;2023-03-04T01:49:13;2.40;99.90
38428;DHT22;24211;49.980;19.776;2023-03-04T01:51:45;2.30;99.90
38428;DHT22;24211;49.980;19.776;2023-03-04T01:54:15;2.40;99.90
38428;DHT22;24211;49.980;19.776;2023-03-04T01:56:44;2.40;99.90
38428;DHT22;24211;49.980;19.776;2023-03-04T01:59:22;2.40;99.90
38428;DHT22;24211;49.980;19.776;2023-03-04T02:02:08;2.40;99.90
38428;DHT22;24211;49.980;19.776;2023-03-04T02:04:36;2.40;99.90
38428;DHT22;24211;49.980;19.776;2023-03-04T02:07:05;2.40;99.90
38428;DHT22;24211;49.980;19.776;2023-03-04T02:09:33;2.40;99.90
38428;DHT22;24211;49.980;19.776;2023-03-04T02:12:01;2.30;99.90
38428;DHT22;24211;49.980;19.776;2023-03-04T02:14:29;2.30;99.90
38428;DHT22;24211;49.980;19.776;2023-03-04T02:16:56;2.30;99.90
38428;DHT22;24211;49.980;19.776;2023-03-04T02:19:45;2.30;99.90
38428;DHT22;24211;49.980;19.776;2023-03-04T02:22:20;2.30;99.90
38428;DHT22;24211;49.980;19.776;2023-03-04T02:24:56;2.30;99.90
38428;DHT22;24211;49.980;19.776;2023-03-04T02:27:29;2.40;99.90
38428;DHT22;24211;49.980;19.776;2023-03-04T02:29:56;2.40;99.90
38428;DHT22;24211;49.980;19.776;2023-03-04T02:32:23;2.40;99.90
38428;DHT22;24211;49.980;19.776;2023-03-04T02:34:51;2.40;99.90
38428;DHT22;24211;49.980;19.776;2023-03-04T02:37:20;2.40;99.90
38428;DHT22;24211;49.980;19.776;2023-03-04T02:39:51;2.40;99.90
38428;DHT22;24211;49.980;19.776;2023-03-04T02:42:18;2.40;99.90
38428;DHT22;24211;49.980;19.776;2023-03-04T02:44:46;2.30;99.90
38428;DHT22;24211;49.980;19.776;2023-03-04T02:47:17;2.30;99.90
38428;DHT22;24211;49.980;19.776;2023-03-04T02:49:46;2.40;99.90
38428;DHT22;24211;49.980;19.776;2023-03-04T02:52:20;2.40;99.90
38428;DHT22;24211;49.980;19.776;2023-03-04T02:54:49;2.40;99.90
38428;DHT22;24211;49.980;19.776;2023-03-04T02:57:17;2.40;99.90
38428;DHT22;24211;49.980;19.776;2023-03-04T02:59:48;2.40;99.90
38428;DHT22;24211;49.980;19.776;2023-03-04T03:02:20;2.40;99.90
38428;DHT22;24211;49.980;19.776;2023-03-04T03:04:47;2.50;99.90
38428;DHT22;24211;49.980;19.776;2023-03-04T03:07:17;2.40;99.90
38428;DHT22;24211;49.980;19.776;2023-03-04T03:09:44;2.40;99.90
38428;DHT22;24211;49.980;19.776;2023-03-04T03:12:11;2.40;99.90
38428;DHT22;24211;49.980;19.776;2023-03-04T03:14:38;2.40;99.90
38428;DHT22;24211;49.980;19.776;2023-03-04T03:17:08;2.40;99.90
38428;DHT22;24211;49.980;19.776;2023-03-04T03:19:38;2.40;99.90
38428;DHT22;24211;49.980;19.776;2023-03-04T03:22:07;2.40;99.90
38428;DHT22;24211;49.980;19.776;2023-03-04T03:24:35;2.30;99.90
38428;DHT22;24211;49.980;19.776;2023-03-04T03:27:02;2.30;99.90
38428;DHT22;24211;49.980;19.776;2023-03-04T03:29:30;2.30;99.90
38428;DHT22;24211;49.980;19.776;2023-03-04T03:31:57;2.40;99.90
38428;DHT22;24211;49.980;19.776;2023-03-04T03:34:25;2.30;99.90
38428;DHT22;24211;49.980;19.776;2023-03-04T03:36:52;2.30;99.90
38428;DHT22;24211;49.980;19.776;2023-03-04T03:39:19;2.30;99.90
38428;DHT22;24211;49.980;19.776;2023-03-04T03:41:46;2.10;99.90
38428;DHT22;24211;49.980;19.776;2023-03-04T03:44:14;2.10;99.90
38428;DHT22;24211;49.980;19.776;2023-03-04T03:46:41;2.10;99.90
38428;DHT22;24211;49.980;19.776;2023-03-04T03:49:08;2.20;99.90
38428;DHT22;24211;49.980;19.776;2023-03-04T03:51:35;2.10;99.90
38428;DHT22;24211;49.980;19.776;2023-03-04T03:54:02;2.00;99.90
38428;DHT22;24211;49.980;19.776;2023-03-04T03:56:30;1.90;99.90
38428;DHT22;24211;49.980;19.776;2023-03-04T03:58:57;1.90;99.90
38428;DHT22;24211;49.980;19.776;2023-03-04T04:01:24;1.90;99.90
38428;DHT22;24211;49.980;19.776;2023-03-04T04:03:51;1.90;99.90
38428;DHT22;24211;49.980;19.776;2023-03-04T04:06:19;1.80;99.90
38428;DHT22;24211;49.980;19.776;2023-03-04T04:08:46;1.90;99.90
38428;DHT22;24211;49.980;19.776;2023-03-04T04:11:13;1.90;99.90
38428;DHT22;24211;49.980;19.776;2023-03-04T04:13:40;1.80;99.90
38428;DHT22;24211;49.980;19.776;2023-03-04T04:16:08;1.80;99.90
38428;DHT22;24211;49.980;19.776;2023-03-04T04:18:37;1.90;99.90
38428;DHT22;24211;49.980;19.776;2023-03-04T04:21:04;1.80;99.90
38428;DHT22;24211;49.980;19.776;2023-03-04T04:23:32;1.80;99.90
38428;DHT22;24211;49.980;19.776;2023-03-04T04:25:59;1.90;99.90
38428;DHT22;24211;49.980;19.776;2023-03-04T04:28:27;1.90;99.90
38428;DHT22;24211;49.980;19.776;2023-03-04T04:30:54;2.00;99.90
38428;DHT22;24211;49.980;19.776;2023-03-04T04:33:21;2.00;99.90
38428;DHT22;24211;49.980;19.776;2023-03-04T04:35:49;2.00;99.90
38428;DHT22;24211;49.980;19.776;2023-03-04T04:38:16;2.00;99.90
38428;DHT22;24211;49.980;19.776;2023-03-04T04:40:43;2.00;99.90
38428;DHT22;24211;49.980;19.776;2023-03-04T04:43:10;2.10;99.90
38428;DHT22;24211;49.980;19.776;2023-03-04T04:45:37;2.10;99.90
38428;DHT22;24211;49.980;19.776;2023-03-04T04:48:05;2.20;99.90
38428;DHT22;24211;49.980;19.776;2023-03-04T04:50:32;2.30;99.90
38428;DHT22;24211;49.980;19.776;2023-03-04T04:52:59;2.40;99.90
38428;DHT22;24211;49.980;19.776;2023-03-04T04:55:27;2.40;99.90
38428;DHT22;24211;49.980;19.776;2023-03-04T04:57:54;2.40;99.90
38428;DHT22;24211;49.980;19.776;2023-03-04T05:00:21;2.40;99.90
38428;DHT22;24211;49.980;19.776;2023-03-04T05:02:48;2.50;99.90
38428;DHT22;24211;49.980;19.776;2023-03-04T05:05:15;2.50;99.90
38428;DHT22;24211;49.980;19.776;2023-03-04T05:07:42;2.60;99.90
38428;DHT22;24211;49.980;19.776;2023-03-04T05:10:10;2.50;99.90
38428;DHT22;24211;49.980;19.776;2023-03-04T05:12:37;2.60;99.90
38428;DHT22;24211;49.980;19.776;2023-03-04T05:15:04;2.60;99.90
38428;DHT22;24211;49.980;19.776;2023-03-04T05:17:32;2.60;99.90
38428;DHT22;24211;49.980;19.776;2023-03-04T05:19:59;2.70;99.90
38428;DHT22;24211;49.980;19.776;2023-03-04T05:22:26;2.70;99.90
38428;DHT22;24211;49.980;19.776;2023-03-04T05:24:53;2.70;99.90
38428;DHT22;24211;49.980;19.776;2023-03-04T05:27:21;2.60;99.90
38428;DHT22;24211;49.980;19.776;2023-03-04T05:29:48;2.60;99.90
38428;DHT22;24211;49.980;19.776;2023-03-04T05:32:15;2.70;99.90
38428;DHT22;24211;49.980;19.776;2023-03-04T05:34:42;2.60;99.90
38428;DHT22;24211;49.980;19.776;2023-03-04T05:37:09;2.60;99.90
38428;DHT22;24211;49.980;19.776;2023-03-04T05:39:36;2.60;99.90
38428;DHT22;24211;49.980;19.776;2023-03-04T05:42:03;2.60;99.90
38428;DHT22;24211;49.980;19.776;2023-03-04T05:44:31;2.60;99.90
38428;DHT22;24211;49.980;19.776;2023-03-04T05:46:58;2.60;99.90
38428;DHT22;24211;49.980;19.776;2023-03-04T05:49:25;2.50;99.90
38428;DHT22;24211;49.980;19.776;2023-03-04T05:51:52;2.50;99.90
38428;DHT22;24211;49.980;19.776;2023-03-04T05:54:19;2.60;99.90
38428;DHT22;24211;49.980;19.776;2023-03-04T05:56:47;2.50;99.90
38428;DHT22;24211;49.980;19.776;2023-03-04T05:59:14;2.50;99.90
38428;DHT22;24211;49.980;19.776;2023-03-04T06:01:46;2.50;99.90
38428;DHT22;24211;49.980;19.776;2023-03-04T06:04:14;2.40;99.90
38428;DHT22;24211;49.980;19.776;2023-03-04T06:06:41;2.40;99.90
38428;DHT22;24211;49.980;19.776;2023-03-04T06:09:09;2.40;99.90
38428;DHT22;24211;49.980;19.776;2023-03-04T06:11:36;2.30;99.90
38428;DHT22;24211;49.980;19.776;2023-03-04T06:14:03;2.30;99.90
38428;DHT22;24211;49.980;19.776;2023-03-04T06:16:31;2.30;99.90
38428;DHT22;24211;49.980;19.776;2023-03-04T06:18:58;2.20;99.90
38428;DHT22;24211;49.980;19.776;2023-03-04T06:21:25;2.10;99.90
38428;DHT22;24211;49.980;19.776;2023-03-04T06:23:52;2.10;99.90
38428;DHT22;24211;49.980;19.776;2023-03-04T06:26:19;2.00;99.90
38428;DHT22;24211;49.980;19.776;2023-03-04T06:28:47;2.00;99.90
38428;DHT22;24211;49.980;19.776;2023-03-04T06:31:14;1.90;99.90
38428;DHT22;24211;49.980;19.776;2023-03-04T06:33:41;1.90;99.90
38428;DHT22;24211;49.980;19.776;2023-03-04T06:36:08;1.90;99.90
38428;DHT22;24211;49.980;19.776;2023-03-04T06:38:35;1.90;99.90
38428;DHT22;24211;49.980;19.776;2023-03-04T06:41:09;1.90;99.90
38428;DHT22;24211;49.980;19.776;2023-03-04T06:43:38;1.80;99.90
38428;DHT22;24211;49.980;19.776;2023-03-04T06:46:07;1.80;99.90
38428;DHT22;24211;49.980;19.776;2023-03-04T06:48:35;1.90;99.90
38428;DHT22;24211;49.980;19.776;2023-03-04T06:51:09;1.90;99.90
38428;DHT22;24211;49.980;19.776;2023-03-04T06:53:38;1.90;99.90
38428;DHT22;24211;49.980;19.776;2023-03-04T06:56:07;1.90;99.90
38428;DHT22;24211;49.980;19.776;2023-03-04T06:58:36;1.80;99.90
38428;DHT22;24211;49.980;19.776;2023-03-04T07:01:21;1.80;99.90
38428;DHT22;24211;49.980;19.776;2023-03-04T07:03:52;1.90;99.90
38428;DHT22;24211;49.980;19.776;2023-03-04T07:06:23;1.90;99.90
38428;DHT22;24211;49.980;19.776;2023-03-04T07:08:53;1.90;99.90
38428;DHT22;24211;49.980;19.776;2023-03-04T07:11:20;1.90;99.90
38428;DHT22;24211;49.980;19.776;2023-03-04T07:13:48;1.90;99.90
38428;DHT22;24211;49.980;19.776;2023-03-04T07:16:19;1.90;99.90
38428;DHT22;24211;49.980;19.776;2023-03-04T07:18:48;1.80;99.90
38428;DHT22;24211;49.980;19.776;2023-03-04T07:21:17;1.80;99.90
38428;DHT22;24211;49.980;19.776;2023-03-04T07:23:45;1.70;99.90
38428;DHT22;24211;49.980;19.776;2023-03-04T07:26:12;1.70;99.90
38428;DHT22;24211;49.980;19.776;2023-03-04T07:28:40;1.70;99.90
38428;DHT22;24211;49.980;19.776;2023-03-04T07:31:13;1.70;99.90
38428;DHT22;24211;49.980;19.776;2023-03-04T07:33:47;1.80;99.90
38428;DHT22;24211;49.980;19.776;2023-03-04T07:36:14;1.70;99.90
38428;DHT22;24211;49.980;19.776;2023-03-04T07:38:45;1.70;99.90
38428;DHT22;24211;49.980;19.776;2023-03-04T07:41:15;1.70;99.90
38428;DHT22;24211;49.980;19.776;2023-03-04T07:43:43;1.70;99.90
38428;DHT22;24211;49.980;19.776;2023-03-04T07:46:10;1.70;99.90
38428;DHT22;24211;49.980;19.776;2023-03-04T07:48:38;1.60;99.90
38428;DHT22;24211;49.980;19.776;2023-03-04T07:51:14;1.60;99.90
38428;DHT22;24211;49.980;19.776;2023-03-04T07:53:47;1.60;99.90
38428;DHT22;24211;49.980;19.776;2023-03-04T07:56:18;1.60;99.90
38428;DHT22;24211;49.980;19.776;2023-03-04T07:58:48;1.50;99.90
38428;DHT22;24211;49.980;19.776;2023-03-04T08:01:17;1.60;99.90
38428;DHT22;24211;49.980;19.776;2023-03-04T08:03:47;1.50;99.90
38428;DHT22;24211;49.980;19.776;2023-03-04T08:06:16;1.50;99.90
38428;DHT22;24211;49.980;19.776;2023-03-04T08:08:46;1.60;99.90
38428;DHT22;24211;49.980;19.776;2023-03-04T08:11:19;1.60;99.90
38428;DHT22;24211;49.980;19.776;2023-03-04T08:13:48;1.60;99.90
38428;DHT22;24211;49.980;19.776;2023-03-04T08:16:17;1.70;99.90
38428;DHT22;24211;49.980;19.776;2023-03-04T08:18:50;1.60;99.90
38428;DHT22;24211;49.980;19.776;2023-03-04T08:21:22;1.60;99.90
38428;DHT22;24211;49.980;19.776;2023-03-04T08:23:51;1.60;99.90
38428;DHT22;24211;49.980;19.776;2023-03-04T08:26:24;1.60;99.90
38428;DHT22;24211;49.980;19.776;2023-03-04T08:28:55;1.60;99.90
38428;DHT22;24211;49.980;19.776;2023-03-04T08:31:22;1.60;99.90
38428;DHT22;24211;49.980;19.776;2023-03-04T08:33:51;1.60;99.90
38428;DHT22;24211;49.980;19.776;2023-03-04T08:36:19;1.60;99.90
38428;DHT22;24211;49.980;19.776;2023-03-04T08:38:47;1.60;99.90
38428;DHT22;24211;49.980;19.776;2023-03-04T08:41:14;1.60;99.90
38428;DHT22;24211;49.980;19.776;2023-03-04T08:43:42;1.60;99.90
38428;DHT22;24211;49.980;19.776;2023-03-04T08:46:09;1.60;99.90
38428;DHT22;24211;49.980;19.776;2023-03-04T08:48:36;1.60;99.90
38428;DHT22;24211;49.980;19.776;2023-03-04T08:51:07;1.60;99.90
38428;DHT22;24211;49.980;19.776;2023-03-04T08:53:37;1.60;99.90
38428;DHT22;24211;49.980;19.776;2023-03-04T08:56:05;1.70;99.90
38428;DHT22;24211;49.980;19.776;2023-03-04T08:58:33;1.70;99.90
38428;DHT22;24211;49.980;19.776;2023-03-04T09:01:01;1.70;99.90
38428;DHT22;24211;49.980;19.776;2023-03-04T09:03:38;1.70;99.90
38428;DHT22;24211;49.980;19.776;2023-03-04T09:06:06;1.80;99.90
38428;DHT22;24211;49.980;19.776;2023-03-04T09:08:35;1.80;99.90
38428;DHT22;24211;49.980;19.776;2023-03-04T09:11:02;1.80;99.90
38428;DHT22;24211;49.980;19.776;2023-03-04T09:13:30;1.80;99.90
38428;DHT22;24211;49.980;19.776;2023-03-04T09:15:58;1.90;99.90
38428;DHT22;24211;49.980;19.776;2023-03-04T09:18:26;1.90;99.90
38428;DHT22;24211;49.980;19.776;2023-03-04T09:20:54;2.00;99.90
38428;DHT22;24211;49.980;19.776;2023-03-04T09:23:21;1.90;99.90
38428;DHT22;24211;49.980;19.776;2023-03-04T09:25:49;1.90;99.90
38428;DHT22;24211;49.980;19.776;2023-03-04T09:28:17;1.90;99.90
38428;DHT22;24211;49.980;19.776;2023-03-04T09:30:45;2.00;99.90
38428;DHT22;24211;49.980;19.776;2023-03-04T09:33:13;2.00;99.90
38428;DHT22;24211;49.980;19.776;2023-03-04T09:35:40;2.00;99.90
38428;DHT22;24211;49.980;19.776;2023-03-04T09:38:09;2.00;99.90
38428;DHT22;24211;49.980;19.776;2023-03-04T09:40:42;2.00;99.90
38428;DHT22;24211;49.980;19.776;2023-03-04T09:43:25;1.90;99.90
38428;DHT22;24211;49.980;19.776;2023-03-04T09:45:56;2.00;99.90
38428;DHT22;24211;49.980;19.776;2023-03-04T09:48:29;2.10;99.90
38428;DHT22;24211;49.980;19.776;2023-03-04T09:51:34;2.10;99.90
38428;DHT22;24211;49.980;19.776;2023-03-04T09:57:46;2.10;99.90
38428;DHT22;24211;49.980;19.776;2023-03-04T10:00:42;2.10;99.90
38428;DHT22;24211;49.980;19.776;2023-03-04T10:03:19;2.20;99.90
38428;DHT22;24211;49.980;19.776;2023-03-04T10:05:59;2.20;99.90
38428;DHT22;24211;49.980;19.776;2023-03-04T10:11:33;2.30;99.90
38428;DHT22;24211;49.980;19.776;2023-03-04T10:14:30;2.30;99.90
38428;DHT22;24211;49.980;19.776;2023-03-04T10:17:18;2.40;99.90
38428;DHT22;24211;49.980;19.776;2023-03-04T10:22:55;2.40;99.90
38428;DHT22;24211;49.980;19.776;2023-03-04T10:25:28;2.40;99.90
38428;DHT22;24211;49.980;19.776;2023-03-04T10:28:11;2.30;99.90
38428;DHT22;24211;49.980;19.776;2023-03-04T10:30:58;2.40;99.90
38428;DHT22;24211;49.980;19.776;2023-03-04T10:33:34;2.40;99.90
38428;DHT22;24211;49.980;19.776;2023-03-04T10:41:28;2.30;99.90
38428;DHT22;24211;49.980;19.776;2023-03-04T10:44:12;2.40;99.90
38428;DHT22;24211;49.980;19.776;2023-03-04T10:46:44;2.40;99.90
38428;DHT22;24211;49.980;19.776;2023-03-04T10:49:18;2.50;99.90
38428;DHT22;24211;49.980;19.776;2023-03-04T10:51:53;2.50;99.90
38428;DHT22;24211;49.980;19.776;2023-03-04T10:54:46;2.50;99.90
38428;DHT22;24211;49.980;19.776;2023-03-04T10:57:22;2.50;99.90
38428;DHT22;24211;49.980;19.776;2023-03-04T11:00:22;2.50;99.90
38428;DHT22;24211;49.980;19.776;2023-03-04T11:02:52;2.50;99.90
38428;DHT22;24211;49.980;19.776;2023-03-04T11:05:24;2.60;99.90
38428;DHT22;24211;49.980;19.776;2023-03-04T11:07:53;2.50;99.90
38428;DHT22;24211;49.980;19.776;2023-03-04T11:10:29;2.50;99.90
38428;DHT22;24211;49.980;19.776;2023-03-04T11:13:21;2.60;99.90
38428;DHT22;24211;49.980;19.776;2023-03-04T11:21:05;2.70;99.90
38428;DHT22;24211;49.980;19.776;2023-03-04T11:23:40;2.70;99.90
38428;DHT22;24211;49.980;19.776;2023-03-04T11:26:20;2.80;99.90
38428;DHT22;24211;49.980;19.776;2023-03-04T11:31:38;2.90;99.90
38428;DHT22;24211;49.980;19.776;2023-03-04T11:37:20;2.90;99.90
38428;DHT22;24211;49.980;19.776;2023-03-04T11:40:01;2.90;99.90
38428;DHT22;24211;49.980;19.776;2023-03-04T11:42:58;2.90;99.90
38428;DHT22;24211;49.980;19.776;2023-03-04T11:48:48;2.90;99.90
38428;DHT22;24211;49.980;19.776;2023-03-04T11:54:50;3.00;99.90
38428;DHT22;24211;49.980;19.776;2023-03-04T12:03:56;3.10;99.90
38428;DHT22;24211;49.980;19.776;2023-03-04T12:07:19;3.10;99.90
38428;DHT22;24211;49.980;19.776;2023-03-04T12:28:35;3.40;99.90
38428;DHT22;24211;49.980;19.776;2023-03-04T12:37:15;3.50;99.90
38428;DHT22;24211;49.980;19.776;2023-03-04T12:46:41;3.50;99.90
38428;DHT22;24211;49.980;19.776;2023-03-04T12:49:44;3.50;99.90
38428;DHT22;24211;49.980;19.776;2023-03-04T12:52:45;3.50;99.90
38428;DHT22;24211;49.980;19.776;2023-03-04T12:55:39;3.60;99.90
38428;DHT22;24211;49.980;19.776;2023-03-04T12:58:17;3.60;99.90
38428;DHT22;24211;49.980;19.776;2023-03-04T13:04:05;3.60;99.90
38428;DHT22;24211;49.980;19.776;2023-03-04T13:09:49;3.60;99.90
38428;DHT22;24211;49.980;19.776;2023-03-04T13:12:23;3.60;99.90
38428;DHT22;24211;49.980;19.776;2023-03-04T13:20:40;3.70;99.90
38428;DHT22;24211;49.980;19.776;2023-03-04T13:26:27;3.70;99.90
38428;DHT22;24211;49.980;19.776;2023-03-04T13:28:42;3.80;99.90
38428;DHT22;24211;49.980;19.776;2023-03-04T13:41:46;4.00;99.90
38428;DHT22;24211;49.980;19.776;2023-03-04T13:47:20;4.00;99.90
38428;DHT22;24211;49.980;19.776;2023-03-04T13:50:47;3.90;99.90
38428;DHT22;24211;49.980;19.776;2023-03-04T13:53:40;4.00;99.90
38428;DHT22;24211;49.980;19.776;2023-03-04T14:04:19;4.10;99.90
38428;DHT22;24211;49.980;19.776;2023-03-04T14:07:23;4.20;99.90
38428;DHT22;24211;49.980;19.776;2023-03-04T14:12:52;4.10;99.90
38428;DHT22;24211;49.980;19.776;2023-03-04T14:15:25;4.10;99.90
38428;DHT22;24211;49.980;19.776;2023-03-04T14:17:58;4.10;99.90
38428;DHT22;24211;49.980;19.776;2023-03-04T14:20:35;4.20;99.90
38428;DHT22;24211;49.980;19.776;2023-03-04T14:23:23;4.10;99.90
38428;DHT22;24211;49.980;19.776;2023-03-04T14:26:05;4.10;99.90
38428;DHT22;24211;49.980;19.776;2023-03-04T14:28:56;4.20;99.90
38428;DHT22;24211;49.980;19.776;2023-03-04T14:31:28;4.10;99.90
38428;DHT22;24211;49.980;19.776;2023-03-04T14:33:58;4.10;99.90
38428;DHT22;24211;49.980;19.776;2023-03-04T14:36:33;4.10;99.90
38428;DHT22;24211;49.980;19.776;2023-03-04T14:39:04;4.10;99.90
38428;DHT22;24211;49.980;19.776;2023-03-04T14:41:35;4.10;99.90
38428;DHT22;24211;49.980;19.776;2023-03-04T14:47:18;4.10;99.90
38428;DHT22;24211;49.980;19.776;2023-03-04T14:49:50;4.10;99.90
38428;DHT22;24211;49.980;19.776;2023-03-04T14:52:32;4.10;99.90
38428;DHT22;24211;49.980;19.776;2023-03-04T14:55:24;4.10;99.90
38428;DHT22;24211;49.980;19.776;2023-03-04T14:58:20;4.10;99.90
38428;DHT22;24211;49.980;19.776;2023-03-04T15:04:04;4.10;99.90
38428;DHT22;24211;49.980;19.776;2023-03-04T15:06:34;4.10;99.90
38428;DHT22;24211;49.980;19.776;2023-03-04T15:09:16;4.10;99.90
38428;DHT22;24211;49.980;19.776;2023-03-04T15:11:53;4.10;99.90
38428;DHT22;24211;49.980;19.776;2023-03-04T15:15:00;4.10;99.90
38428;DHT22;24211;49.980;19.776;2023-03-04T15:17:38;4.10;99.90
38428;DHT22;24211;49.980;19.776;2023-03-04T15:25:11;4.10;99.90
38428;DHT22;24211;49.980;19.776;2023-03-04T15:27:42;4.10;99.90
38428;DHT22;24211;49.980;19.776;2023-03-04T15:30:19;4.10;99.90
38428;DHT22;24211;49.980;19.776;2023-03-04T15:32:56;4.10;99.90
38428;DHT22;24211;49.980;19.776;2023-03-04T15:35:27;4.10;99.90
38428;DHT22;24211;49.980;19.776;2023-03-04T15:37:56;4.10;99.90
38428;DHT22;24211;49.980;19.776;2023-03-04T15:40:30;4.10;99.90
38428;DHT22;24211;49.980;19.776;2023-03-04T15:43:05;4.10;99.90
38428;DHT22;24211;49.980;19.776;2023-03-04T15:45:37;4.10;99.90
38428;DHT22;24211;49.980;19.776;2023-03-04T15:48:06;4.10;99.90
38428;DHT22;24211;49.980;19.776;2023-03-04T15:50:43;4.10;99.90
38428;DHT22;24211;49.980;19.776;2023-03-04T15:53:38;4.10;99.90
38428;DHT22;24211;49.980;19.776;2023-03-04T15:56:12;4.10;99.90
38428;DHT22;24211;49.980;19.776;2023-03-04T15:58:42;4.10;99.90
38428;DHT22;24211;49.980;19.776;2023-03-04T16:01:14;4.10;99.90
38428;DHT22;24211;49.980;19.776;2023-03-04T16:03:43;4.20;99.90
38428;DHT22;24211;49.980;19.776;2023-03-04T16:06:11;4.20;99.90
38428;DHT22;24211;49.980;19.776;2023-03-04T16:08:40;4.10;99.90
38428;DHT22;24211;49.980;19.776;2023-03-04T16:11:25;4.10;99.90
38428;DHT22;24211;49.980;19.776;2023-03-04T16:13:54;4.20;99.90
38428;DHT22;24211;49.980;19.776;2023-03-04T16:16:21;4.20;99.90
38428;DHT22;24211;49.980;19.776;2023-03-04T16:18:48;4.10;99.90
38428;DHT22;24211;49.980;19.776;2023-03-04T16:21:19;4.20;99.90
38428;DHT22;24211;49.980;19.776;2023-03-04T16:23:49;4.20;99.90
38428;DHT22;24211;49.980;19.776;2023-03-04T16:26:20;4.20;99.90
38428;DHT22;24211;49.980;19.776;2023-03-04T16:28:50;4.20;99.90
38428;DHT22;24211;49.980;19.776;2023-03-04T16:31:19;4.20;99.90
38428;DHT22;24211;49.980;19.776;2023-03-04T16:33:47;4.20;99.90
38428;DHT22;24211;49.980;19.776;2023-03-04T16:36:18;4.20;99.90
38428;DHT22;24211;49.980;19.776;2023-03-04T16:38:49;4.20;99.90
38428;DHT22;24211;49.980;19.776;2023-03-04T16:41:19;4.20;99.90
38428;DHT22;24211;49.980;19.776;2023-03-04T16:43:51;4.20;99.90
38428;DHT22;24211;49.980;19.776;2023-03-04T16:46:18;4.20;99.90
38428;DHT22;24211;49.980;19.776;2023-03-04T16:48:46;4.10;99.90
38428;DHT22;24211;49.980;19.776;2023-03-04T16:51:16;4.10;99.90
38428;DHT22;24211;49.980;19.776;2023-03-04T16:53:52;4.10;99.90
38428;DHT22;24211;49.980;19.776;2023-03-04T16:56:22;4.10;99.90
38428;DHT22;24211;49.980;19.776;2023-03-04T16:58:50;4.10;99.90
38428;DHT22;24211;49.980;19.776;2023-03-04T17:01:23;4.10;99.90
38428;DHT22;24211;49.980;19.776;2023-03-04T17:03:53;4.10;99.90
38428;DHT22;24211;49.980;19.776;2023-03-04T17:06:22;4.10;99.90
38428;DHT22;24211;49.980;19.776;2023-03-04T17:08:50;4.10;99.90
38428;DHT22;24211;49.980;19.776;2023-03-04T17:11:22;4.10;99.90
38428;DHT22;24211;49.980;19.776;2023-03-04T17:13:50;4.10;99.90
38428;DHT22;24211;49.980;19.776;2023-03-04T17:16:17;4.10;99.90
38428;DHT22;24211;49.980;19.776;2023-03-04T17:18:45;4.10;99.90
38428;DHT22;24211;49.980;19.776;2023-03-04T17:21:15;4.20;99.90
38428;DHT22;24211;49.980;19.776;2023-03-04T17:23:44;4.20;99.90
38428;DHT22;24211;49.980;19.776;2023-03-04T17:26:11;4.20;99.90
38428;DHT22;24211;49.980;19.776;2023-03-04T17:28:41;4.20;99.90
38428;DHT22;24211;49.980;19.776;2023-03-04T17:31:09;4.20;99.90
38428;DHT22;24211;49.980;19.776;2023-03-04T17:33:38;4.20;99.90
38428;DHT22;24211;49.980;19.776;2023-03-04T17:36:05;4.20;99.90
38428;DHT22;24211;49.980;19.776;2023-03-04T17:38:36;4.20;99.90
38428;DHT22;24211;49.980;19.776;2023-03-04T17:41:05;4.20;99.90
38428;DHT22;24211;49.980;19.776;2023-03-04T17:43:33;4.20;99.90
38428;DHT22;24211;49.980;19.776;2023-03-04T17:46:06;4.20;99.90
38428;DHT22;24211;49.980;19.776;2023-03-04T17:48:36;4.20;99.90
38428;DHT22;24211;49.980;19.776;2023-03-04T17:51:03;4.10;99.90
38428;DHT22;24211;49.980;19.776;2023-03-04T17:53:31;4.20;99.90
38428;DHT22;24211;49.980;19.776;2023-03-04T17:56:00;4.10;99.90
38428;DHT22;24211;49.980;19.776;2023-03-04T17:58:31;4.20;99.90